createdAt,value
2019-04-26T00:04:33.825Z,0.40
2019-04-26T00:09:39.585Z,0.75
2019-04-26T00:14:54.842Z,0.00
2019-04-26T00:19:59.128Z,0.00
2019-04-26T00:25:03.549Z,0.00
2019-04-26T00:30:07.713Z,0.00
2019-04-26T00:35:12.922Z,0.00
2019-04-26T00:40:18.229Z,0.00
2019-04-26T00:45:23.825Z,0.80
2019-04-26T00:50:28.087Z,0.00
2019-04-26T00:55:34.687Z,1.00
2019-04-26T01:00:38.765Z,0.00
2019-04-26T01:05:42.768Z,0.00
2019-04-26T01:10:46.851Z,0.00
2019-04-26T01:15:50.850Z,0.00
2019-04-26T01:20:57.879Z,1.00
2019-04-26T01:26:14.395Z,0.00
2019-04-26T01:31:19.872Z,0.00
2019-04-26T01:36:26.930Z,0.00
2019-04-26T01:41:40.079Z,0.00
2019-04-26T01:46:46.648Z,0.00
2019-04-26T01:51:58.427Z,0.00
2019-04-26T01:57:04.986Z,0.00
2019-04-26T02:02:25.910Z,0.00
2019-04-26T02:07:38.722Z,0.00
2019-04-26T02:12:45.950Z,0.00
2019-04-26T02:17:52.178Z,0.00
2019-04-26T02:23:06.718Z,0.00
2019-04-26T02:28:10.801Z,0.50
2019-04-26T02:33:15.550Z,0.00
2019-04-26T02:38:20.192Z,0.50
2019-04-26T02:43:28.633Z,0.00
2019-04-26T02:48:51.652Z,0.00
2019-04-26T02:54:04.837Z,0.00
2019-04-26T02:59:38.187Z,0.00
2019-04-26T03:04:44.826Z,0.00
2019-04-26T03:09:51.832Z,0.00
2019-04-26T03:15:13.693Z,0.00
2019-04-26T03:20:19.164Z,0.00
2019-04-26T03:25:32.827Z,0.20
2019-04-26T03:31:00.742Z,0.00
2019-04-26T03:36:25.699Z,0.00
2019-04-26T03:42:02.108Z,0.00
2019-04-26T03:47:10.035Z,0.00
2019-04-26T03:52:23.602Z,1.00
2019-04-26T03:57:41.846Z,2.00
2019-04-26T04:03:05.290Z,2.50
2019-04-26T04:08:13.264Z,1.00
2019-04-26T04:14:00.573Z,1.00
2019-04-26T04:19:13.787Z,1.00
2019-04-26T04:24:28.438Z,1.00
2019-04-26T04:29:50.024Z,2.60
2019-04-26T04:34:53.621Z,4.00
2019-04-26T04:40:19.378Z,3.00
2019-04-26T04:46:12.901Z,2.00
2019-04-26T04:51:42.894Z,2.60
2019-04-26T04:57:30.605Z,3.50
2019-04-26T05:02:53.446Z,3.00
2019-04-26T05:08:21.073Z,3.00
2019-04-26T05:13:58.645Z,3.00
2019-04-26T05:19:39.864Z,2.25
2019-04-26T05:25:19.750Z,3.75
2019-04-26T05:31:17.666Z,4.00
2019-04-26T05:36:31.280Z,2.00
2019-04-26T05:42:22.082Z,3.00
2019-04-26T05:48:03.174Z,3.00
2019-04-26T05:53:59.531Z,3.00
2019-04-26T05:59:37.880Z,4.00
2019-04-26T06:05:05.797Z,3.00
2019-04-26T06:10:25.049Z,2.00
2019-04-26T06:15:53.067Z,2.40
2019-04-26T06:21:13.843Z,2.60
2019-04-26T06:27:10.324Z,3.75
2019-04-26T06:32:13.243Z,3.75
2019-04-26T06:37:35.458Z,2.60
2019-04-26T06:43:26.792Z,3.50
2019-04-26T06:49:13.891Z,8.00
2019-04-26T06:54:31.185Z,6.00
2019-04-26T06:59:52.638Z,7.00
2019-04-26T07:05:20.461Z,5.00
2019-04-26T07:10:58.193Z,5.00
2019-04-26T07:16:41.684Z,7.00
2019-04-26T07:22:35.868Z,7.00
2019-04-26T07:28:06.412Z,7.00
2019-04-26T07:33:30.402Z,5.40
2019-04-26T07:39:19.467Z,6.25
2019-04-26T07:45:02.068Z,6.20
2019-04-26T07:50:48.804Z,6.00
2019-04-26T07:56:00.594Z,4.00
2019-04-26T08:01:31.817Z,3.60
2019-04-26T08:06:43.907Z,2.00
2019-04-26T08:11:55.073Z,2.00
2019-04-26T08:17:37.398Z,3.00
2019-04-26T08:22:45.038Z,2.40
2019-04-26T08:27:51.701Z,3.00
2019-04-26T08:33:02.057Z,2.25
2019-04-26T08:38:16.211Z,2.75
2019-04-26T08:43:50.072Z,3.20
2019-04-26T08:49:06.749Z,2.00
2019-04-26T08:54:19.185Z,2.75
2019-04-26T08:59:28.897Z,3.00
2019-04-26T09:04:41.312Z,2.00
2019-04-26T09:09:57.026Z,1.80
2019-04-26T09:14:57.663Z,3.00
2019-04-26T09:20:07.119Z,2.60
2019-04-26T09:25:22.601Z,1.20
2019-04-26T09:30:34.290Z,2.00
2019-04-26T09:35:35.196Z,2.80
2019-04-26T09:40:39.471Z,2.40
2019-04-26T09:46:01.231Z,2.25
2019-04-26T09:51:05.888Z,5.50
2019-04-26T09:56:09.887Z,6.00
2019-04-26T10:01:14.039Z,3.25
2019-04-26T10:06:18.204Z,4.20
2019-04-26T10:11:24.628Z,6.20
2019-04-26T10:16:37.711Z,5.00
2019-04-26T10:21:41.745Z,4.60
2019-04-26T10:26:45.759Z,3.50
2019-04-26T10:31:51.789Z,3.50
2019-04-26T10:36:57.058Z,4.00
2019-04-26T10:42:01.317Z,3.60
2019-04-26T10:47:06.043Z,3.60
2019-04-26T10:52:17.111Z,1.25
2019-04-26T10:57:29.408Z,4.75
2019-04-26T11:02:33.575Z,4.00
2019-04-26T11:07:37.580Z,3.80
2019-04-26T11:12:43.321Z,5.00
2019-04-26T11:17:50.020Z,3.00
2019-04-26T11:22:53.309Z,7.80
2019-04-26T11:27:57.410Z,4.40
2019-04-26T11:33:01.396Z,2.00
2019-04-26T11:38:05.656Z,5.20
2019-04-26T11:43:09.639Z,5.20
2019-04-26T11:48:14.066Z,3.00
2019-04-26T11:53:18.062Z,3.00
2019-04-26T11:58:23.599Z,4.00
2019-04-26T12:03:27.837Z,4.25
2019-04-26T12:08:41.305Z,2.50
2019-04-26T12:13:45.403Z,4.25
2019-04-26T12:18:49.414Z,3.40
2019-04-26T12:23:55.440Z,4.00
2019-04-26T12:28:59.225Z,3.50
2019-04-26T12:34:03.229Z,3.60
2019-04-26T12:39:09.021Z,4.80
2019-04-26T12:44:14.777Z,5.20
2019-04-26T12:49:20.358Z,4.00
2019-04-26T12:54:25.053Z,5.20
2019-04-26T12:59:29.119Z,4.00
2019-04-26T13:04:36.132Z,6.40
2019-04-26T13:09:40.840Z,6.00
2019-04-26T13:15:02.626Z,6.75
2019-04-26T13:20:07.011Z,8.60
2019-04-26T13:25:20.247Z,4.00
2019-04-26T13:30:17.273Z,7.00
2019-04-26T13:35:21.440Z,10.40
2019-04-26T13:40:29.250Z,6.00
2019-04-26T13:45:53.352Z,7.75
2019-04-26T13:51:05.631Z,8.75
2019-04-26T13:56:08.620Z,8.00
2019-04-26T14:01:14.658Z,8.00
2019-04-26T14:06:19.013Z,14.00
2019-04-26T14:11:28.078Z,14.00
2019-04-26T14:16:28.825Z,14.00
2019-04-26T14:21:34.483Z,14.50
2019-04-26T14:26:43.921Z,17.50
2019-04-26T14:31:51.412Z,14.00
2019-04-26T14:37:05.964Z,19.50
2019-04-26T14:41:59.870Z,17.00
2019-04-26T14:47:13.511Z,15.25
2019-04-26T14:52:09.782Z,16.25
2019-04-26T14:57:21.088Z,14.00
2019-04-26T15:02:37.040Z,15.50
2019-04-26T15:07:49.456Z,17.75
2019-04-26T15:12:48.896Z,19.00
2019-04-26T15:17:53.637Z,16.25
2019-04-26T15:22:58.471Z,18.40
2019-04-26T15:28:02.591Z,18.00
2019-04-26T15:33:08.947Z,17.00
2019-04-26T15:38:13.100Z,17.40
2019-04-26T15:43:36.089Z,17.50
2019-04-26T15:49:12.535Z,18.80
2019-04-26T15:54:17.930Z,10.20
2019-04-26T15:59:25.283Z,11.20
2019-04-26T16:04:28.396Z,8.50
2019-04-26T16:09:32.676Z,13.20
2019-04-26T16:14:37.117Z,11.00
2019-04-26T16:19:41.286Z,11.40
2019-04-26T16:24:45.364Z,11.80
2019-04-26T16:30:16.687Z,11.00
2019-04-26T16:35:25.380Z,10.20
2019-04-26T16:40:27.072Z,11.75
2019-04-26T16:45:32.752Z,8.00
2019-04-26T16:50:44.007Z,12.00
2019-04-26T16:55:50.593Z,9.25
2019-04-26T17:00:54.761Z,8.50
2019-04-26T17:06:04.658Z,8.25
2019-04-26T17:11:00.780Z,8.00
2019-04-26T17:16:05.799Z,8.00
2019-04-26T17:21:10.033Z,7.00
2019-04-26T17:26:33.753Z,8.00
2019-04-26T17:31:37.979Z,7.60
2019-04-26T17:36:42.058Z,7.25
2019-04-26T17:41:50.739Z,5.25
2019-04-26T17:46:56.250Z,7.00
2019-04-26T17:51:59.832Z,6.75
2019-04-26T17:57:04.335Z,5.00
2019-04-26T18:02:24.112Z,5.20
2019-04-26T18:07:37.764Z,6.75
2019-04-26T18:12:20.819Z,5.00
2019-04-26T18:18:23.322Z,5.75
2019-04-26T18:23:01.218Z,5.75
2019-04-26T18:28:08.777Z,6.00
2019-04-26T18:33:13.335Z,4.50
2019-04-26T18:38:17.288Z,3.20
2019-04-26T18:43:24.074Z,6.20
2019-04-26T18:48:27.145Z,6.00
2019-04-26T18:53:49.003Z,5.00
2019-04-26T18:58:55.639Z,7.00
2019-04-26T19:04:00.287Z,4.75
2019-04-26T19:09:06.738Z,5.20
2019-04-26T19:14:32.579Z,5.25
2019-04-26T19:19:54.555Z,5.40
2019-04-26T19:24:58.560Z,4.40
2019-04-26T19:30:08.923Z,5.25
2019-04-26T19:35:12.192Z,6.80
2019-04-26T19:40:15.291Z,6.20
2019-04-26T19:45:35.252Z,5.80
2019-04-26T19:50:50.225Z,4.25
2019-04-26T19:56:08.792Z,7.80
2019-04-26T20:01:16.538Z,4.00
2019-04-26T20:06:19.879Z,6.50
2019-04-26T20:11:24.095Z,6.00
2019-04-26T20:16:28.177Z,6.00
2019-04-26T20:21:34.166Z,4.50
2019-04-26T20:26:41.942Z,5.60
2019-04-26T20:32:09.147Z,4.00
2019-04-26T20:37:16.120Z,4.00
2019-04-26T20:42:19.013Z,4.40
2019-04-26T20:47:23.195Z,6.00
2019-04-26T20:52:27.328Z,4.40
2019-04-26T20:57:34.380Z,5.00
2019-04-26T21:02:37.218Z,5.00
2019-04-26T21:07:41.961Z,4.60
2019-04-26T21:12:51.142Z,4.00
2019-04-26T21:17:56.744Z,3.50
2019-04-26T21:23:02.409Z,4.00
2019-04-26T21:28:11.565Z,4.00
2019-04-26T21:33:28.741Z,4.00
2019-04-26T21:38:36.439Z,3.50
2019-04-26T21:43:46.427Z,3.40
2019-04-26T21:48:50.454Z,4.80
2019-04-26T21:53:54.459Z,3.40
2019-04-26T21:58:58.498Z,3.00
2019-04-26T22:04:03.024Z,3.75
2019-04-26T22:09:35.045Z,3.00
2019-04-26T22:14:36.842Z,3.00
2019-04-26T22:20:12.460Z,2.50
2019-04-26T22:25:12.948Z,2.00
2019-04-26T22:30:28.278Z,2.00
2019-04-26T22:35:28.812Z,3.00
2019-04-26T22:40:33.527Z,3.40
2019-04-26T22:45:50.863Z,2.00
2019-04-26T22:50:58.624Z,3.75
2019-04-26T22:56:01.435Z,1.00
2019-04-26T23:01:06.627Z,3.25
2019-04-26T23:06:12.750Z,1.40
2019-04-26T23:11:17.258Z,3.00
2019-04-26T23:16:55.908Z,2.60
2019-04-26T23:21:55.580Z,3.00
2019-04-26T23:26:57.957Z,1.40
2019-04-26T23:32:03.594Z,2.80
2019-04-26T23:37:07.972Z,1.00
2019-04-26T23:42:12.340Z,2.80
2019-04-26T23:47:21.087Z,1.75
2019-04-26T23:52:24.533Z,2.50
2019-04-26T23:57:31.347Z,1.50
